createdAt,value
2023-03-15T00:02:04.646Z,97448.00
2023-03-15T00:04:42.000Z,97453.40
2023-03-15T00:07:18.455Z,97466.40
2023-03-15T00:09:55.153Z,97470.00
2023-03-15T00:12:32.135Z,97476.60
2023-03-15T00:15:11.042Z,97487.00
2023-03-15T00:17:47.464Z,97501.60
2023-03-15T00:20:24.346Z,97509.80
2023-03-15T00:23:01.118Z,97525.60
2023-03-15T00:25:37.606Z,97536.80
2023-03-15T00:28:14.101Z,97545.40
2023-03-15T00:30:50.603Z,97556.20
2023-03-15T00:33:26.991Z,97574.60
2023-03-15T00:36:06.560Z,97576.80
2023-03-15T00:38:45.243Z,97585.00
2023-03-15T00:41:23.826Z,97592.20
2023-03-15T00:44:00.133Z,97605.20
2023-03-15T00:46:36.635Z,97610.80
2023-03-15T00:49:13.064Z,97624.00
2023-03-15T00:51:49.451Z,97630.40
2023-03-15T00:54:25.696Z,97645.40
2023-03-15T00:57:02.480Z,97645.80
2023-03-15T00:59:39.185Z,97650.20
2023-03-15T01:02:18.010Z,97660.60
2023-03-15T01:04:55.063Z,97671.40
2023-03-15T01:07:34.343Z,97685.60
2023-03-15T01:10:15.195Z,97689.00
2023-03-15T01:12:51.729Z,97697.80
2023-03-15T01:15:28.318Z,97708.60
2023-03-15T01:18:04.749Z,97721.80
2023-03-15T01:20:43.870Z,97719.40
2023-03-15T01:23:21.422Z,97729.60
2023-03-15T01:26:00.619Z,97730.20
2023-03-15T01:28:37.940Z,97735.80
2023-03-15T01:31:21.887Z,97743.00
2023-03-15T01:33:59.740Z,97762.20
2023-03-15T01:36:39.162Z,97762.80
2023-03-15T01:39:15.542Z,97774.00
2023-03-15T01:41:53.874Z,97783.80
2023-03-15T01:44:54.920Z,97788.00
2023-03-15T01:47:32.906Z,97800.20
2023-03-15T01:50:14.236Z,97814.40
2023-03-15T01:52:51.169Z,97825.20
2023-03-15T01:55:29.150Z,97827.00
2023-03-15T01:58:17.116Z,97836.40
2023-03-15T02:00:55.643Z,97841.20
2023-03-15T02:03:38.954Z,97841.20
2023-03-15T02:06:18.498Z,97838.20
2023-03-15T02:09:05.867Z,97850.00
2023-03-15T02:11:44.750Z,97854.60
2023-03-15T02:14:22.696Z,97862.20
2023-03-15T02:17:00.110Z,97874.60
2023-03-15T02:19:57.221Z,97882.00
2023-03-15T02:22:48.646Z,97885.80
2023-03-15T02:25:39.747Z,97891.20
2023-03-15T02:28:20.162Z,97899.80
2023-03-15T02:30:56.864Z,97912.00
2023-03-15T02:33:40.183Z,97916.20
2023-03-15T02:36:24.809Z,97915.00
2023-03-15T02:39:01.988Z,97913.40
2023-03-15T02:41:43.820Z,97918.20
2023-03-15T02:44:22.848Z,97914.80
2023-03-15T02:47:07.282Z,97916.80
2023-03-15T02:49:50.797Z,97916.60
2023-03-15T02:52:27.810Z,97913.40
2023-03-15T02:55:04.585Z,97917.60
2023-03-15T02:57:41.142Z,97928.20
2023-03-15T03:00:22.428Z,97936.00
2023-03-15T03:02:59.346Z,97940.80
2023-03-15T03:05:35.721Z,97951.00
2023-03-15T03:08:12.673Z,97958.20
2023-03-15T03:10:50.050Z,97960.40
2023-03-15T03:13:26.726Z,97964.40
2023-03-15T03:16:03.679Z,97966.20
2023-03-15T03:18:42.284Z,97972.60
2023-03-15T03:21:18.907Z,97980.40
2023-03-15T03:23:55.772Z,97979.40
2023-03-15T03:26:32.889Z,97983.00
2023-03-15T03:29:09.728Z,97991.00
2023-03-15T03:31:47.394Z,97992.60
2023-03-15T03:34:24.257Z,97993.00
2023-03-15T03:37:00.762Z,97989.00
2023-03-15T03:39:52.453Z,97998.60
2023-03-15T03:42:29.743Z,98003.80
2023-03-15T03:45:07.873Z,98008.40
2023-03-15T03:47:48.236Z,97996.80
2023-03-15T03:50:24.864Z,97995.40
2023-03-15T03:53:01.415Z,98006.00
2023-03-15T03:55:42.875Z,98005.20
2023-03-15T03:58:19.596Z,98011.20
2023-03-15T04:01:00.520Z,98021.60
2023-03-15T04:03:37.598Z,98024.20
2023-03-15T04:06:23.772Z,98028.00
2023-03-15T04:09:00.278Z,98032.60
2023-03-15T04:11:48.694Z,98030.80
2023-03-15T04:14:26.280Z,98031.20
2023-03-15T04:17:04.080Z,98043.00
2023-03-15T04:19:41.246Z,98046.80
2023-03-15T04:22:19.081Z,98050.60
2023-03-15T04:25:14.706Z,98051.00
2023-03-15T04:27:58.988Z,98048.20
2023-03-15T04:30:59.099Z,98049.80
2023-03-15T04:33:55.443Z,98051.20
2023-03-15T04:37:32.262Z,98064.40
2023-03-15T04:40:26.642Z,98065.40
2023-03-15T04:43:22.861Z,98071.20
2023-03-15T04:46:18.522Z,98074.00
2023-03-15T04:49:10.071Z,98074.80
2023-03-15T04:52:05.532Z,98077.00
2023-03-15T04:54:58.518Z,98084.20
2023-03-15T04:57:56.802Z,98092.20
2023-03-15T05:00:48.514Z,98097.20
2023-03-15T05:03:43.537Z,98103.20
2023-03-15T05:06:26.236Z,98103.60
2023-03-15T05:09:05.658Z,98104.00
2023-03-15T05:12:02.502Z,98107.40
2023-03-15T05:15:26.117Z,98109.80
2023-03-15T05:18:52.245Z,98107.80
2023-03-15T05:21:52.018Z,98115.40
2023-03-15T05:25:11.482Z,98120.60
2023-03-15T05:28:29.827Z,98124.00
2023-03-15T05:31:58.235Z,98136.00
2023-03-15T05:35:02.461Z,98142.40
2023-03-15T05:37:51.112Z,98152.00
2023-03-15T05:41:12.329Z,98154.80
2023-03-15T05:44:09.675Z,98155.00
2023-03-15T05:47:26.845Z,98165.40
2023-03-15T05:50:49.981Z,98174.00
2023-03-15T05:54:10.282Z,98179.20
2023-03-15T05:56:58.869Z,98173.80
2023-03-15T06:00:28.433Z,98187.80
2023-03-15T06:03:06.043Z,98196.20
2023-03-15T06:05:56.191Z,98200.60
2023-03-15T06:08:40.239Z,98209.80
2023-03-15T06:11:16.651Z,98215.60
2023-03-15T06:13:53.247Z,98214.40
2023-03-15T06:17:14.131Z,98218.60
2023-03-15T06:19:52.827Z,98219.40
2023-03-15T06:22:30.108Z,98221.40
2023-03-15T06:25:11.748Z,98229.00
2023-03-15T06:27:49.111Z,98236.40
2023-03-15T06:30:27.814Z,98241.80
2023-03-15T06:33:06.521Z,98247.60
2023-03-15T06:35:43.204Z,98256.00
2023-03-15T06:38:19.709Z,98259.20
2023-03-15T06:40:58.589Z,98264.60
2023-03-15T06:43:35.181Z,98265.60
2023-03-15T06:46:11.790Z,98275.40
2023-03-15T06:48:48.204Z,98274.40
2023-03-15T06:51:25.177Z,98280.60
2023-03-15T06:54:01.968Z,98289.00
2023-03-15T06:56:38.733Z,98292.40
2023-03-15T06:59:15.057Z,98288.80
2023-03-15T07:01:51.414Z,98290.80
2023-03-15T07:04:30.227Z,98286.20
2023-03-15T07:07:07.299Z,98290.40
2023-03-15T07:09:44.191Z,98295.40
2023-03-15T07:12:21.142Z,98299.80
2023-03-15T07:14:57.492Z,98301.00
2023-03-15T07:17:33.754Z,98300.40
2023-03-15T07:20:13.896Z,98298.40
2023-03-15T07:22:50.452Z,98305.40
2023-03-15T07:25:26.802Z,98303.60
2023-03-15T07:28:03.315Z,98308.00
2023-03-15T07:30:39.727Z,98308.80
2023-03-15T07:33:16.225Z,98317.80
2023-03-15T07:35:53.608Z,98320.00
2023-03-15T07:38:31.486Z,98323.00
2023-03-15T07:41:10.382Z,98323.20
2023-03-15T07:43:47.649Z,98325.40
2023-03-15T07:46:26.917Z,98327.00
2023-03-15T07:49:03.320Z,98330.00
2023-03-15T07:51:40.022Z,98325.60
2023-03-15T07:54:16.513Z,98335.20
2023-03-15T07:56:52.963Z,98333.60
2023-03-15T07:59:30.645Z,98335.60
2023-03-15T08:02:07.583Z,98340.60
2023-03-15T08:04:44.926Z,98344.80
2023-03-15T08:07:21.568Z,98348.80
2023-03-15T08:09:59.264Z,98353.80
2023-03-15T08:12:35.569Z,98358.60
2023-03-15T08:15:15.564Z,98359.60
2023-03-15T08:17:53.199Z,98361.00
2023-03-15T08:20:30.196Z,98362.20
2023-03-15T08:23:06.823Z,98370.40
2023-03-15T08:25:43.726Z,98372.80
2023-03-15T08:28:20.913Z,98377.40
2023-03-15T08:30:57.494Z,98377.40
2023-03-15T08:33:33.747Z,98375.20
2023-03-15T08:36:11.335Z,98373.00
2023-03-15T08:38:47.703Z,98371.60
2023-03-15T08:41:24.076Z,98374.80
2023-03-15T08:44:00.527Z,98374.80
2023-03-15T08:46:37.026Z,98372.40
2023-03-15T08:49:13.258Z,98375.00
2023-03-15T08:51:49.537Z,98374.60
2023-03-15T08:54:27.572Z,98375.60
2023-03-15T08:57:04.672Z,98378.20
2023-03-15T08:59:41.377Z,98383.40
2023-03-15T09:02:18.738Z,98392.40
2023-03-15T09:04:55.383Z,98399.20
2023-03-15T09:07:32.891Z,98399.00
2023-03-15T09:10:13.327Z,98404.00
2023-03-15T09:12:54.090Z,98400.40
2023-03-15T09:15:30.989Z,98406.80
2023-03-15T09:18:08.439Z,98409.60
2023-03-15T09:20:45.138Z,98420.40
2023-03-15T09:23:21.688Z,98428.00
2023-03-15T09:25:58.356Z,98432.60
2023-03-15T09:28:35.038Z,98437.00
2023-03-15T09:31:12.553Z,98431.80
2023-03-15T09:33:49.847Z,98431.00
2023-03-15T09:36:26.700Z,98436.20
2023-03-15T09:39:03.706Z,98430.20
2023-03-15T09:41:52.238Z,98434.60
2023-03-15T09:44:52.620Z,98429.20
2023-03-15T09:47:48.332Z,98432.40
2023-03-15T09:50:32.907Z,98436.20
2023-03-15T09:53:20.227Z,98441.40
2023-03-15T09:56:26.967Z,98441.80
2023-03-15T09:59:06.732Z,98441.80
2023-03-15T10:01:45.603Z,98445.00
2023-03-15T10:04:31.619Z,98451.00
2023-03-15T10:07:13.367Z,98446.20
2023-03-15T10:09:49.077Z,98450.60
2023-03-15T10:12:40.856Z,98457.80
2023-03-15T10:15:45.823Z,98452.20
2023-03-15T10:18:51.247Z,98454.00
2023-03-15T10:21:49.052Z,98452.80
2023-03-15T10:24:37.057Z,98458.20
2023-03-15T10:27:27.389Z,98462.20
2023-03-15T10:30:14.581Z,98460.00
2023-03-15T10:33:00.483Z,98467.00
2023-03-15T10:35:37.925Z,98466.80
2023-03-15T10:38:23.890Z,98475.00
2023-03-15T10:41:02.733Z,98480.40
2023-03-15T10:43:41.655Z,98484.40
2023-03-15T10:46:27.008Z,98483.40
2023-03-15T10:49:13.278Z,98483.20
2023-03-15T10:51:51.345Z,98484.00
2023-03-15T10:54:29.809Z,98485.20
2023-03-15T10:57:14.799Z,98482.60
2023-03-15T11:00:09.529Z,98489.00
2023-03-15T11:03:02.626Z,98482.60
2023-03-15T11:05:50.704Z,98486.00
2023-03-15T11:08:40.230Z,98489.60
2023-03-15T11:11:16.705Z,98492.20
2023-03-15T11:14:07.857Z,98494.40
2023-03-15T11:16:47.783Z,98494.80
2023-03-15T11:19:28.114Z,98491.60
2023-03-15T11:22:06.186Z,98488.20
2023-03-15T11:24:43.151Z,98483.00
2023-03-15T11:27:26.019Z,98490.00
2023-03-15T11:30:05.608Z,98487.00
2023-03-15T11:32:49.435Z,98486.00
2023-03-15T11:35:33.753Z,98482.60
2023-03-15T11:38:23.277Z,98486.40
2023-03-15T11:41:03.918Z,98478.20
2023-03-15T11:44:01.267Z,98481.60
2023-03-15T11:46:48.785Z,98481.60
2023-03-15T11:49:36.745Z,98492.40
2023-03-15T11:52:16.721Z,98494.40
2023-03-15T11:54:55.749Z,98501.80
2023-03-15T11:57:51.184Z,98499.40
2023-03-15T12:01:02.213Z,98501.80
2023-03-15T12:03:46.598Z,98500.00
2023-03-15T12:06:43.208Z,98499.80
2023-03-15T12:09:56.491Z,98502.60
2023-03-15T12:12:48.639Z,98501.60
2023-03-15T12:15:53.423Z,98508.60
2023-03-15T12:18:47.745Z,98500.40
2023-03-15T12:21:35.348Z,98504.60
2023-03-15T12:24:25.383Z,98509.60
2023-03-15T12:27:16.487Z,98509.00
2023-03-15T12:30:02.915Z,98502.20
2023-03-15T12:32:51.199Z,98502.80
2023-03-15T12:35:34.283Z,98502.40
2023-03-15T12:38:20.824Z,98503.40
2023-03-15T12:41:00.202Z,98507.40
2023-03-15T12:43:46.717Z,98501.00
2023-03-15T12:47:04.586Z,98504.60
2023-03-15T12:49:49.193Z,98502.80
2023-03-15T12:52:53.707Z,98502.80
2023-03-15T12:55:35.775Z,98507.40
2023-03-15T12:58:14.161Z,98512.00
2023-03-15T13:00:55.577Z,98509.40
2023-03-15T13:03:35.435Z,98513.00
2023-03-15T13:06:39.634Z,98512.00
2023-03-15T13:09:46.700Z,98508.20
2023-03-15T13:12:30.518Z,98507.20
2023-03-15T13:15:18.688Z,98516.20
2023-03-15T13:18:04.608Z,98522.60
2023-03-15T13:21:01.215Z,98520.60
2023-03-15T13:23:42.742Z,98516.60
2023-03-15T13:26:55.849Z,98517.80
2023-03-15T13:29:36.495Z,98516.00
2023-03-15T13:32:23.073Z,98518.00
2023-03-15T13:35:02.339Z,98518.20
2023-03-15T13:37:45.092Z,98526.80
2023-03-15T13:40:22.172Z,98524.80
2023-03-15T13:43:04.601Z,98528.20
2023-03-15T13:45:46.679Z,98531.40
2023-03-15T13:48:24.379Z,98537.40
2023-03-15T13:51:07.996Z,98542.20
2023-03-15T13:53:49.849Z,98547.00
2023-03-15T13:56:49.390Z,98554.20
2023-03-15T13:59:35.785Z,98562.60
2023-03-15T14:02:19.300Z,98565.40
2023-03-15T14:05:05.337Z,98567.80
2023-03-15T14:07:45.679Z,98572.40
2023-03-15T14:10:38.846Z,98575.60
2023-03-15T14:13:32.211Z,98575.80
2023-03-15T14:16:18.075Z,98584.60
2023-03-15T14:18:55.622Z,98584.40
2023-03-15T14:21:38.574Z,98584.80
2023-03-15T14:24:26.846Z,98583.00
2023-03-15T14:27:10.485Z,98589.20
2023-03-15T14:29:55.593Z,98586.00
2023-03-15T14:32:37.664Z,98584.40
2023-03-15T14:35:26.276Z,98588.20
2023-03-15T14:38:17.735Z,98593.60
2023-03-15T14:40:55.893Z,98593.40
2023-03-15T14:43:32.216Z,98593.40
2023-03-15T14:46:11.766Z,98589.40
2023-03-15T14:48:48.545Z,98591.40
2023-03-15T14:51:27.000Z,98585.60
2023-03-15T14:54:04.287Z,98587.00
2023-03-15T14:56:42.669Z,98593.20
2023-03-15T14:59:20.782Z,98595.60
2023-03-15T15:02:01.200Z,98597.40
2023-03-15T15:04:39.706Z,98602.60
2023-03-15T15:07:20.655Z,98605.40
2023-03-15T15:09:57.451Z,98613.00
2023-03-15T15:12:33.816Z,98614.40
2023-03-15T15:15:21.656Z,98614.00
2023-03-15T15:17:58.633Z,98621.80
2023-03-15T15:20:35.090Z,98621.60
2023-03-15T15:23:16.840Z,98624.40
2023-03-15T15:25:55.319Z,98629.60
2023-03-15T15:28:37.209Z,98628.60
2023-03-15T15:31:19.816Z,98628.20
2023-03-15T15:33:57.654Z,98624.60
2023-03-15T15:36:39.728Z,98631.00
2023-03-15T15:39:27.788Z,98631.00
2023-03-15T15:42:04.003Z,98632.40
2023-03-15T15:44:40.455Z,98634.00
2023-03-15T15:47:17.350Z,98633.80
2023-03-15T15:49:54.335Z,98633.80
2023-03-15T15:52:31.300Z,98634.00
2023-03-15T15:55:13.957Z,98639.40
2023-03-15T15:57:53.982Z,98645.20
2023-03-15T16:00:32.550Z,98652.20
2023-03-15T16:03:16.788Z,98653.20
2023-03-15T16:05:53.275Z,98655.80
2023-03-15T16:08:31.513Z,98656.00
2023-03-15T16:11:08.875Z,98657.20
2023-03-15T16:13:46.698Z,98655.40
2023-03-15T16:16:24.355Z,98659.40
2023-03-15T16:19:00.943Z,98661.20
2023-03-15T16:21:43.368Z,98663.40
2023-03-15T16:24:24.370Z,98669.60
2023-03-15T16:27:06.058Z,98662.20
2023-03-15T16:29:47.570Z,98665.80
2023-03-15T16:32:43.082Z,98672.80
2023-03-15T16:35:20.992Z,98675.40
2023-03-15T16:38:01.888Z,98674.40
2023-03-15T16:40:43.105Z,98681.20
2023-03-15T16:43:20.166Z,98686.20
2023-03-15T16:45:56.568Z,98689.00
2023-03-15T16:48:33.180Z,98687.60
2023-03-15T16:51:14.553Z,98692.20
2023-03-15T16:53:52.691Z,98701.80
2023-03-15T16:56:36.949Z,98705.40
2023-03-15T16:59:17.020Z,98709.60
2023-03-15T17:01:53.749Z,98716.60
2023-03-15T17:04:30.285Z,98715.60
2023-03-15T17:07:07.627Z,98723.20
2023-03-15T17:09:44.574Z,98729.00
2023-03-15T17:12:28.001Z,98734.80
2023-03-15T17:15:06.226Z,98735.40
2023-03-15T17:17:44.381Z,98736.60
2023-03-15T17:20:27.304Z,98738.60
2023-03-15T17:23:07.033Z,98744.40
2023-03-15T17:25:44.008Z,98748.20
2023-03-15T17:28:21.497Z,98743.40
2023-03-15T17:31:19.977Z,98742.20
2023-03-15T17:33:55.237Z,98747.40
2023-03-15T17:36:37.761Z,98749.80
2023-03-15T17:39:18.301Z,98754.00
2023-03-15T17:41:55.297Z,98760.60
2023-03-15T17:44:31.692Z,98763.80
2023-03-15T17:47:10.901Z,98766.00
2023-03-15T17:49:48.832Z,98770.00
2023-03-15T17:52:25.587Z,98768.80
2023-03-15T17:55:01.995Z,98774.60
2023-03-15T17:57:42.941Z,98772.20
2023-03-15T18:00:28.865Z,98770.40
2023-03-15T18:03:06.310Z,98775.40
2023-03-15T18:05:43.665Z,98775.80
2023-03-15T18:08:25.028Z,98769.20
2023-03-15T18:11:02.113Z,98776.20
2023-03-15T18:13:39.207Z,98776.60
2023-03-15T18:16:17.423Z,98776.40
2023-03-15T18:18:54.995Z,98775.20
2023-03-15T18:21:33.163Z,98771.60
2023-03-15T18:24:15.363Z,98770.00
2023-03-15T18:26:52.938Z,98765.40
2023-03-15T18:29:29.665Z,98769.60
2023-03-15T18:32:07.257Z,98764.40
2023-03-15T18:34:44.364Z,98766.20
2023-03-15T18:37:21.484Z,98763.60
2023-03-15T18:39:58.429Z,98771.40
2023-03-15T18:42:34.894Z,98769.60
2023-03-15T18:45:21.348Z,98762.40
2023-03-15T18:48:00.029Z,98766.60
2023-03-15T18:50:37.490Z,98763.40
2023-03-15T18:53:14.879Z,98768.80
2023-03-15T18:55:52.299Z,98770.00
2023-03-15T18:58:31.874Z,98766.20
2023-03-15T19:01:08.765Z,98772.40
2023-03-15T19:03:45.872Z,98776.20
2023-03-15T19:06:23.831Z,98773.20
2023-03-15T19:09:01.137Z,98777.60
2023-03-15T19:11:41.927Z,98780.80
2023-03-15T19:14:18.346Z,98788.20
2023-03-15T19:16:55.232Z,98786.80
2023-03-15T19:19:31.703Z,98790.60
2023-03-15T19:22:08.232Z,98792.00
2023-03-15T19:24:44.887Z,98793.00
2023-03-15T19:27:21.350Z,98795.40
2023-03-15T19:29:58.228Z,98792.60
2023-03-15T19:32:37.619Z,98796.20
2023-03-15T19:35:15.429Z,98795.40
2023-03-15T19:37:52.852Z,98792.80
2023-03-15T19:40:29.810Z,98793.20
2023-03-15T19:43:06.486Z,98795.80
2023-03-15T19:45:43.192Z,98801.20
2023-03-15T19:48:21.328Z,98801.40
2023-03-15T19:50:58.596Z,98805.00
2023-03-15T19:53:37.209Z,98809.60
2023-03-15T19:56:17.282Z,98814.40
2023-03-15T19:58:56.468Z,98815.80
2023-03-15T20:01:33.836Z,98815.00
2023-03-15T20:04:11.179Z,98814.20
2023-03-15T20:06:48.034Z,98818.60
2023-03-15T20:09:24.981Z,98822.80
2023-03-15T20:12:01.854Z,98825.20
2023-03-15T20:14:41.053Z,98827.00
2023-03-15T20:17:20.565Z,98825.40
2023-03-15T20:19:58.258Z,98829.60
2023-03-15T20:22:35.303Z,98832.20
2023-03-15T20:25:14.471Z,98835.20
2023-03-15T20:27:51.853Z,98831.60
2023-03-15T20:30:29.204Z,98838.00
2023-03-15T20:33:06.076Z,98836.40
2023-03-15T20:35:43.106Z,98842.20
2023-03-15T20:38:22.955Z,98848.60
2023-03-15T20:41:01.836Z,98850.60
2023-03-15T20:43:38.842Z,98844.20
2023-03-15T20:46:17.032Z,98843.00
2023-03-15T20:48:54.250Z,98842.40
2023-03-15T20:51:30.968Z,98841.80
2023-03-15T20:54:07.483Z,98845.60
2023-03-15T20:56:45.598Z,98852.20
2023-03-15T20:59:22.739Z,98851.00
2023-03-15T21:02:01.005Z,98847.20
2023-03-15T21:04:37.986Z,98851.20
2023-03-15T21:07:14.751Z,98856.00
2023-03-15T21:09:51.136Z,98862.00
2023-03-15T21:12:27.647Z,98863.40
2023-03-15T21:15:04.688Z,98868.60
2023-03-15T21:17:41.316Z,98871.00
2023-03-15T21:20:18.612Z,98874.60
2023-03-15T21:22:54.980Z,98880.20
2023-03-15T21:25:32.396Z,98876.60
2023-03-15T21:28:09.122Z,98877.80
2023-03-15T21:30:46.241Z,98879.80
2023-03-15T21:33:23.307Z,98876.80
2023-03-15T21:36:00.584Z,98877.60
2023-03-15T21:38:38.906Z,98880.60
2023-03-15T21:41:15.667Z,98878.20
2023-03-15T21:43:52.034Z,98876.20
2023-03-15T21:46:28.333Z,98877.00
2023-03-15T21:49:05.494Z,98879.20
2023-03-15T21:51:46.001Z,98876.80
2023-03-15T21:54:22.517Z,98881.00
2023-03-15T21:56:58.984Z,98880.00
2023-03-15T21:59:35.761Z,98891.40
2023-03-15T22:02:14.346Z,98891.40
2023-03-15T22:04:52.083Z,98886.60
2023-03-15T22:07:28.549Z,98886.80
2023-03-15T22:10:05.859Z,98897.40
2023-03-15T22:12:43.451Z,98897.60
2023-03-15T22:15:20.111Z,98901.60
2023-03-15T22:17:56.464Z,98909.00
2023-03-15T22:20:33.545Z,98911.80
2023-03-15T22:23:11.266Z,98915.60
2023-03-15T22:25:47.730Z,98915.60
2023-03-15T22:28:25.364Z,98916.60
2023-03-15T22:31:01.924Z,98914.40
2023-03-15T22:33:38.766Z,98917.00
2023-03-15T22:36:17.349Z,98917.20
2023-03-15T22:38:54.260Z,98924.00
2023-03-15T22:41:30.827Z,98921.40
2023-03-15T22:44:07.465Z,98924.80
2023-03-15T22:46:44.114Z,98930.00
2023-03-15T22:49:26.440Z,98931.20
2023-03-15T22:52:02.695Z,98937.00
2023-03-15T22:54:39.007Z,98937.20
2023-03-15T22:57:15.549Z,98938.40
2023-03-15T22:59:52.248Z,98942.20
2023-03-15T23:02:29.728Z,98945.40
2023-03-15T23:05:06.863Z,98945.00
2023-03-15T23:07:44.007Z,98950.40
2023-03-15T23:10:21.137Z,98952.20
2023-03-15T23:12:57.406Z,98955.00
2023-03-15T23:15:34.230Z,98955.00
2023-03-15T23:18:13.898Z,98957.40
2023-03-15T23:20:50.341Z,98959.60
2023-03-15T23:23:27.750Z,98965.60
2023-03-15T23:26:04.335Z,98964.40
2023-03-15T23:28:40.871Z,98968.20
2023-03-15T23:31:17.197Z,98970.20
2023-03-15T23:33:53.861Z,98972.60
2023-03-15T23:36:30.173Z,98975.80
2023-03-15T23:39:06.951Z,98976.80
2023-03-15T23:41:45.672Z,98976.20
2023-03-15T23:44:22.689Z,98979.80
2023-03-15T23:46:59.022Z,98982.20
2023-03-15T23:49:38.527Z,98980.60
2023-03-15T23:52:15.844Z,98981.60
2023-03-15T23:54:53.971Z,98981.20
2023-03-15T23:57:30.832Z,98983.60
